Main page
METAR-TAF:

METAR-TAF

Airports :

Piešťany, Slovakia

Piešťany Airport

latitude: 48-37-30N, longitude: 017-49-43E, elevation: 163 m

Current weather observation

The report was made 18 minutes ago, at 22:30 UTC
Wind 3 kt from the East
Temperature 7°C
Humidity 93%
Pressure 1018 hPa
Visibility: 7000 m

METAR: LZPP 262230Z AUTO 10003KT 7000 NCD 07/06 Q1018

Time: 00:48 (22:48 UTC)

Forecast

The report was made 5 hours and 48 minutes ago, at 17:00 UTC
Forecast valid from 26 at 18 UTC to 27 at 03 UTC
Wind 6 kt from the Southwest
Visibility 10 km or more
Scattered clouds at a height of 4200 ft
Broken clouds at a height of 8000 ft
Temporary
from 26 at 18 UTC to 26 at 20 UTC
Visibility: 5000 m
light rain

TAF: LZPP 261700Z 2618/2703 23006KT 9999 SCT042 BKN080 TEMPO 2618/2620 5000 -RA

Weather observations and forecasts of more than 4000 airports (METAR and TAF reports).

The available stations are represented by yellow and red dots on the map.

Hover mouse over dot to see the name of the station.

Then click to see weather observations and forecasts.

To change the map : click on the green buttons with a black cross to zoom in, on the green button with a dash to zoom out, or on the green arrows for adjacent maps.


METAR-TAF: